sensor_id;sensor_type;location;lat;lon;timestamp;P1;durP1;ratioP1;P2;durP2;ratioP2
8129;SDS011;4106;52.532;13.408;2022-07-19T00:01:18;3.40;;;3.10;;
8129;SDS011;4106;52.532;13.408;2022-07-19T00:03:46;2.90;;;2.70;;
8129;SDS011;4106;52.532;13.408;2022-07-19T00:06:13;2.85;;;2.60;;
8129;SDS011;4106;52.532;13.408;2022-07-19T00:08:40;3.45;;;3.20;;
8129;SDS011;4106;52.532;13.408;2022-07-19T00:11:07;2.92;;;2.72;;
8129;SDS011;4106;52.532;13.408;2022-07-19T00:13:35;2.83;;;2.58;;
8129;SDS011;4106;52.532;13.408;2022-07-19T00:16:02;2.97;;;2.70;;
8129;SDS011;4106;52.532;13.408;2022-07-19T00:18:29;3.15;;;2.85;;
8129;SDS011;4106;52.532;13.408;2022-07-19T00:20:56;2.83;;;2.58;;
8129;SDS011;4106;52.532;13.408;2022-07-19T00:23:23;3.20;;;2.90;;
8129;SDS011;4106;52.532;13.408;2022-07-19T00:25:51;3.28;;;3.00;;
8129;SDS011;4106;52.532;13.408;2022-07-19T00:28:18;3.92;;;2.85;;
8129;SDS011;4106;52.532;13.408;2022-07-19T00:30:45;2.83;;;2.62;;
8129;SDS011;4106;52.532;13.408;2022-07-19T00:33:12;2.95;;;2.67;;
8129;SDS011;4106;52.532;13.408;2022-07-19T00:35:39;2.90;;;2.70;;
8129;SDS011;4106;52.532;13.408;2022-07-19T00:38:08;2.97;;;2.78;;
8129;SDS011;4106;52.532;13.408;2022-07-19T00:40:35;3.72;;;3.42;;
8129;SDS011;4106;52.532;13.408;2022-07-19T00:43:02;2.97;;;2.75;;
8129;SDS011;4106;52.532;13.408;2022-07-19T00:45:30;3.10;;;2.80;;
8129;SDS011;4106;52.532;13.408;2022-07-19T00:47:57;3.30;;;3.00;;
8129;SDS011;4106;52.532;13.408;2022-07-19T00:50:24;2.83;;;2.62;;
8129;SDS011;4106;52.532;13.408;2022-07-19T00:52:54;2.47;;;2.28;;
8129;SDS011;4106;52.532;13.408;2022-07-19T00:55:23;2.83;;;2.60;;
8129;SDS011;4106;52.532;13.408;2022-07-19T00:57:51;2.92;;;2.65;;
8129;SDS011;4106;52.532;13.408;2022-07-19T01:00:19;3.08;;;2.87;;
8129;SDS011;4106;52.532;13.408;2022-07-19T01:02:47;4.53;;;2.50;;
8129;SDS011;4106;52.532;13.408;2022-07-19T01:05:14;2.70;;;2.50;;
8129;SDS011;4106;52.532;13.408;2022-07-19T01:07:42;2.42;;;2.22;;
8129;SDS011;4106;52.532;13.408;2022-07-19T01:10:11;3.30;;;3.00;;
8129;SDS011;4106;52.532;13.408;2022-07-19T01:12:37;3.55;;;3.08;;
8129;SDS011;4106;52.532;13.408;2022-07-19T01:17:43;3.72;;;3.15;;
8129;SDS011;4106;52.532;13.408;2022-07-19T01:20:10;4.25;;;2.47;;
8129;SDS011;4106;52.532;13.408;2022-07-19T01:22:37;2.95;;;2.75;;
8129;SDS011;4106;52.532;13.408;2022-07-19T01:25:05;2.67;;;2.22;;
8129;SDS011;4106;52.532;13.408;2022-07-19T01:27:40;3.62;;;2.42;;
8129;SDS011;4106;52.532;13.408;2022-07-19T01:30:11;2.78;;;2.58;;
8129;SDS011;4106;52.532;13.408;2022-07-19T01:32:39;4.35;;;2.83;;
8129;SDS011;4106;52.532;13.408;2022-07-19T01:35:07;3.75;;;2.90;;
8129;SDS011;4106;52.532;13.408;2022-07-19T01:37:35;3.15;;;2.78;;
8129;SDS011;4106;52.532;13.408;2022-07-19T01:40:02;4.07;;;2.65;;
8129;SDS011;4106;52.532;13.408;2022-07-19T01:42:29;2.95;;;2.40;;
8129;SDS011;4106;52.532;13.408;2022-07-19T01:44:56;3.37;;;2.70;;
8129;SDS011;4106;52.532;13.408;2022-07-19T01:47:24;3.55;;;2.83;;
8129;SDS011;4106;52.532;13.408;2022-07-19T01:49:51;6.72;;;2.50;;
8129;SDS011;4106;52.532;13.408;2022-07-19T01:52:18;2.72;;;2.53;;
8129;SDS011;4106;52.532;13.408;2022-07-19T01:54:45;2.47;;;2.28;;
8129;SDS011;4106;52.532;13.408;2022-07-19T01:57:13;3.10;;;2.50;;
8129;SDS011;4106;52.532;13.408;2022-07-19T01:59:41;2.72;;;2.50;;
8129;SDS011;4106;52.532;13.408;2022-07-19T02:02:09;3.20;;;3.00;;
8129;SDS011;4106;52.532;13.408;2022-07-19T02:04:36;2.75;;;2.55;;
8129;SDS011;4106;52.532;13.408;2022-07-19T02:07:04;5.43;;;2.83;;
8129;SDS011;4106;52.532;13.408;2022-07-19T02:09:31;2.97;;;2.78;;
8129;SDS011;4106;52.532;13.408;2022-07-19T02:11:58;2.30;;;2.10;;
8129;SDS011;4106;52.532;13.408;2022-07-19T02:14:26;3.78;;;2.78;;
8129;SDS011;4106;52.532;13.408;2022-07-19T02:16:52;2.80;;;2.60;;
8129;SDS011;4106;52.532;13.408;2022-07-19T02:19:20;2.67;;;2.47;;
8129;SDS011;4106;52.532;13.408;2022-07-19T02:21:48;2.90;;;2.70;;
8129;SDS011;4106;52.532;13.408;2022-07-19T02:24:16;2.92;;;2.58;;
8129;SDS011;4106;52.532;13.408;2022-07-19T02:26:43;2.60;;;2.40;;
8129;SDS011;4106;52.532;13.408;2022-07-19T02:29:10;2.87;;;2.58;;
8129;SDS011;4106;52.532;13.408;2022-07-19T02:31:37;3.08;;;2.85;;
8129;SDS011;4106;52.532;13.408;2022-07-19T02:34:04;2.40;;;2.30;;
8129;SDS011;4106;52.532;13.408;2022-07-19T02:36:32;2.90;;;2.60;;
8129;SDS011;4106;52.532;13.408;2022-07-19T02:38:59;3.30;;;2.40;;
8129;SDS011;4106;52.532;13.408;2022-07-19T02:41:26;3.08;;;2.45;;
8129;SDS011;4106;52.532;13.408;2022-07-19T02:43:53;2.58;;;2.37;;
8129;SDS011;4106;52.532;13.408;2022-07-19T02:46:20;2.72;;;2.53;;
8129;SDS011;4106;52.532;13.408;2022-07-19T02:48:47;2.97;;;2.70;;
8129;SDS011;4106;52.532;13.408;2022-07-19T02:51:15;2.70;;;2.50;;
8129;SDS011;4106;52.532;13.408;2022-07-19T02:53:42;2.80;;;2.55;;
8129;SDS011;4106;52.532;13.408;2022-07-19T02:56:10;2.58;;;2.37;;
8129;SDS011;4106;52.532;13.408;2022-07-19T02:58:38;2.50;;;2.30;;
8129;SDS011;4106;52.532;13.408;2022-07-19T03:01:06;2.75;;;2.20;;
8129;SDS011;4106;52.532;13.408;2022-07-19T03:03:34;2.28;;;2.17;;
8129;SDS011;4106;52.532;13.408;2022-07-19T03:06:07;2.33;;;2.22;;
8129;SDS011;4106;52.532;13.408;2022-07-19T03:08:34;3.05;;;2.85;;
8129;SDS011;4106;52.532;13.408;2022-07-19T03:11:02;2.37;;;2.17;;
8129;SDS011;4106;52.532;13.408;2022-07-19T03:13:30;2.78;;;2.37;;
8129;SDS011;4106;52.532;13.408;2022-07-19T03:15:57;2.62;;;2.42;;
8129;SDS011;4106;52.532;13.408;2022-07-19T03:18:25;2.45;;;2.25;;
8129;SDS011;4106;52.532;13.408;2022-07-19T03:20:53;2.87;;;2.65;;
8129;SDS011;4106;52.532;13.408;2022-07-19T03:23:21;2.53;;;2.33;;
8129;SDS011;4106;52.532;13.408;2022-07-19T03:25:48;2.30;;;2.10;;
8129;SDS011;4106;52.532;13.408;2022-07-19T03:28:16;2.25;;;2.08;;
8129;SDS011;4106;52.532;13.408;2022-07-19T03:30:43;3.20;;;2.62;;
8129;SDS011;4106;52.532;13.408;2022-07-19T03:33:10;2.78;;;2.50;;
8129;SDS011;4106;52.532;13.408;2022-07-19T03:35:38;2.60;;;2.40;;
8129;SDS011;4106;52.532;13.408;2022-07-19T03:38:05;2.95;;;2.58;;
8129;SDS011;4106;52.532;13.408;2022-07-19T03:40:32;4.00;;;2.35;;
8129;SDS011;4106;52.532;13.408;2022-07-19T03:42:59;2.55;;;2.33;;
8129;SDS011;4106;52.532;13.408;2022-07-19T03:45:27;2.85;;;2.58;;
8129;SDS011;4106;52.532;13.408;2022-07-19T03:47:54;2.53;;;2.33;;
8129;SDS011;4106;52.532;13.408;2022-07-19T03:50:21;2.58;;;2.37;;
8129;SDS011;4106;52.532;13.408;2022-07-19T03:52:48;2.20;;;2.10;;
8129;SDS011;4106;52.532;13.408;2022-07-19T03:55:15;3.05;;;2.53;;
8129;SDS011;4106;52.532;13.408;2022-07-19T03:57:43;2.65;;;2.45;;
8129;SDS011;4106;52.532;13.408;2022-07-19T04:00:11;2.70;;;2.50;;
8129;SDS011;4106;52.532;13.408;2022-07-19T04:02:39;2.10;;;2.00;;
8129;SDS011;4106;52.532;13.408;2022-07-19T04:05:06;2.47;;;2.10;;
8129;SDS011;4106;52.532;13.408;2022-07-19T04:07:34;2.85;;;2.28;;
8129;SDS011;4106;52.532;13.408;2022-07-19T04:10:01;2.95;;;2.72;;
8129;SDS011;4106;52.532;13.408;2022-07-19T04:12:28;2.62;;;2.42;;
8129;SDS011;4106;52.532;13.408;2022-07-19T04:14:55;3.20;;;2.90;;
8129;SDS011;4106;52.532;13.408;2022-07-19T04:17:23;2.60;;;2.37;;
8129;SDS011;4106;52.532;13.408;2022-07-19T04:19:51;2.80;;;2.60;;
8129;SDS011;4106;52.532;13.408;2022-07-19T04:22:19;2.22;;;2.12;;
8129;SDS011;4106;52.532;13.408;2022-07-19T04:24:47;2.85;;;2.40;;
8129;SDS011;4106;52.532;13.408;2022-07-19T04:27:14;4.07;;;3.00;;
8129;SDS011;4106;52.532;13.408;2022-07-19T04:29:41;3.25;;;2.78;;
8129;SDS011;4106;52.532;13.408;2022-07-19T04:32:08;3.92;;;2.87;;
8129;SDS011;4106;52.532;13.408;2022-07-19T04:34:35;2.85;;;2.40;;
8129;SDS011;4106;52.532;13.408;2022-07-19T04:37:03;2.37;;;2.15;;
8129;SDS011;4106;52.532;13.408;2022-07-19T04:39:30;2.35;;;2.15;;
8129;SDS011;4106;52.532;13.408;2022-07-19T04:41:57;4.75;;;2.72;;
8129;SDS011;4106;52.532;13.408;2022-07-19T04:44:24;3.10;;;2.80;;
8129;SDS011;4106;52.532;13.408;2022-07-19T04:46:51;2.87;;;2.67;;
8129;SDS011;4106;52.532;13.408;2022-07-19T04:49:19;2.62;;;2.40;;
8129;SDS011;4106;52.532;13.408;2022-07-19T04:51:46;3.08;;;2.47;;
8129;SDS011;4106;52.532;13.408;2022-07-19T04:54:14;5.28;;;2.53;;
8129;SDS011;4106;52.532;13.408;2022-07-19T04:56:42;3.10;;;2.65;;
8129;SDS011;4106;52.532;13.408;2022-07-19T04:59:10;3.45;;;2.50;;
8129;SDS011;4106;52.532;13.408;2022-07-19T05:01:38;2.45;;;2.28;;
8129;SDS011;4106;52.532;13.408;2022-07-19T05:04:05;3.83;;;2.80;;
8129;SDS011;4106;52.532;13.408;2022-07-19T05:06:32;3.60;;;2.20;;
8129;SDS011;4106;52.532;13.408;2022-07-19T05:08:59;2.80;;;2.60;;
8129;SDS011;4106;52.532;13.408;2022-07-19T05:11:26;2.35;;;2.20;;
8129;SDS011;4106;52.532;13.408;2022-07-19T05:13:54;2.50;;;2.30;;
8129;SDS011;4106;52.532;13.408;2022-07-19T05:16:21;4.30;;;2.83;;
8129;SDS011;4106;52.532;13.408;2022-07-19T05:18:49;3.30;;;2.75;;
8129;SDS011;4106;52.532;13.408;2022-07-19T05:21:16;4.20;;;2.83;;
8129;SDS011;4106;52.532;13.408;2022-07-19T05:23:43;2.97;;;2.78;;
8129;SDS011;4106;52.532;13.408;2022-07-19T05:26:10;2.53;;;2.33;;
8129;SDS011;4106;52.532;13.408;2022-07-19T05:28:38;2.85;;;2.35;;
8129;SDS011;4106;52.532;13.408;2022-07-19T05:31:05;2.92;;;2.67;;
8129;SDS011;4106;52.532;13.408;2022-07-19T05:33:32;5.07;;;2.62;;
8129;SDS011;4106;52.532;13.408;2022-07-19T05:35:59;4.45;;;2.90;;
8129;SDS011;4106;52.532;13.408;2022-07-19T05:38:26;3.05;;;2.75;;
8129;SDS011;4106;52.532;13.408;2022-07-19T05:40:54;3.62;;;2.60;;
8129;SDS011;4106;52.532;13.408;2022-07-19T05:43:22;2.97;;;2.78;;
8129;SDS011;4106;52.532;13.408;2022-07-19T05:45:49;3.85;;;3.12;;
8129;SDS011;4106;52.532;13.408;2022-07-19T05:48:17;3.60;;;3.08;;
8129;SDS011;4106;52.532;13.408;2022-07-19T05:50:45;3.28;;;2.95;;
8129;SDS011;4106;52.532;13.408;2022-07-19T05:53:13;3.85;;;3.37;;
8129;SDS011;4106;52.532;13.408;2022-07-19T05:55:40;3.70;;;2.80;;
8129;SDS011;4106;52.532;13.408;2022-07-19T05:58:07;4.62;;;3.55;;
8129;SDS011;4106;52.532;13.408;2022-07-19T06:00:34;3.83;;;3.25;;
8129;SDS011;4106;52.532;13.408;2022-07-19T06:03:02;5.53;;;3.03;;
8129;SDS011;4106;52.532;13.408;2022-07-19T06:05:29;4.18;;;2.85;;
8129;SDS011;4106;52.532;13.408;2022-07-19T06:07:56;2.80;;;2.60;;
8129;SDS011;4106;52.532;13.408;2022-07-19T06:10:23;3.58;;;3.28;;
8129;SDS011;4106;52.532;13.408;2022-07-19T06:12:51;2.80;;;2.60;;
8129;SDS011;4106;52.532;13.408;2022-07-19T06:15:19;2.67;;;2.47;;
8129;SDS011;4106;52.532;13.408;2022-07-19T06:17:47;3.37;;;2.50;;
8129;SDS011;4106;52.532;13.408;2022-07-19T06:20:14;3.10;;;2.80;;
8129;SDS011;4106;52.532;13.408;2022-07-19T06:22:42;3.10;;;2.80;;
8129;SDS011;4106;52.532;13.408;2022-07-19T06:25:10;4.45;;;3.03;;
8129;SDS011;4106;52.532;13.408;2022-07-19T06:27:37;8.02;;;3.58;;
8129;SDS011;4106;52.532;13.408;2022-07-19T06:30:05;7.72;;;3.58;;
8129;SDS011;4106;52.532;13.408;2022-07-19T06:32:32;2.87;;;2.67;;
8129;SDS011;4106;52.532;13.408;2022-07-19T06:35:00;3.35;;;3.05;;
8129;SDS011;4106;52.532;13.408;2022-07-19T06:37:27;2.70;;;2.50;;
8129;SDS011;4106;52.532;13.408;2022-07-19T06:39:55;3.75;;;2.60;;
8129;SDS011;4106;52.532;13.408;2022-07-19T06:42:22;2.40;;;2.20;;
8129;SDS011;4106;52.532;13.408;2022-07-19T06:44:49;3.08;;;2.00;;
8129;SDS011;4106;52.532;13.408;2022-07-19T06:47:17;3.55;;;2.75;;
8129;SDS011;4106;52.532;13.408;2022-07-19T06:49:45;3.50;;;3.00;;
8129;SDS011;4106;52.532;13.408;2022-07-19T06:52:12;4.47;;;2.97;;
8129;SDS011;4106;52.532;13.408;2022-07-19T06:54:39;4.12;;;2.85;;
8129;SDS011;4106;52.532;13.408;2022-07-19T06:57:07;2.90;;;2.70;;
8129;SDS011;4106;52.532;13.408;2022-07-19T06:59:35;5.72;;;3.92;;
8129;SDS011;4106;52.532;13.408;2022-07-19T07:02:02;3.30;;;3.00;;
8129;SDS011;4106;52.532;13.408;2022-07-19T07:04:30;6.53;;;5.12;;
8129;SDS011;4106;52.532;13.408;2022-07-19T07:06:57;4.57;;;3.72;;
8129;SDS011;4106;52.532;13.408;2022-07-19T07:09:25;3.40;;;2.95;;
8129;SDS011;4106;52.532;13.408;2022-07-19T07:11:52;7.45;;;6.32;;
8129;SDS011;4106;52.532;13.408;2022-07-19T07:14:19;8.70;;;6.47;;
8129;SDS011;4106;52.532;13.408;2022-07-19T07:16:46;62.85;;;15.55;;
8129;SDS011;4106;52.532;13.408;2022-07-19T07:19:13;133.75;;;31.40;;
8129;SDS011;4106;52.532;13.408;2022-07-19T07:21:41;136.73;;;32.83;;
8129;SDS011;4106;52.532;13.408;2022-07-19T07:24:08;113.95;;;30.20;;
8129;SDS011;4106;52.532;13.408;2022-07-19T07:26:36;130.57;;;29.30;;
8129;SDS011;4106;52.532;13.408;2022-07-19T07:29:04;122.53;;;26.67;;
8129;SDS011;4106;52.532;13.408;2022-07-19T07:31:32;80.18;;;19.45;;
8129;SDS011;4106;52.532;13.408;2022-07-19T07:34:00;91.35;;;23.10;;
8129;SDS011;4106;52.532;13.408;2022-07-19T07:36:28;110.85;;;25.58;;
8129;SDS011;4106;52.532;13.408;2022-07-19T07:38:56;23.40;;;7.28;;
8129;SDS011;4106;52.532;13.408;2022-07-19T07:41:23;7.90;;;3.03;;
8129;SDS011;4106;52.532;13.408;2022-07-19T07:43:51;74.43;;;22.92;;
8129;SDS011;4106;52.532;13.408;2022-07-19T07:46:18;69.72;;;18.62;;
8129;SDS011;4106;52.532;13.408;2022-07-19T07:48:46;82.10;;;22.87;;
8129;SDS011;4106;52.532;13.408;2022-07-19T07:51:13;66.57;;;19.48;;
8129;SDS011;4106;52.532;13.408;2022-07-19T07:53:40;56.17;;;16.55;;
8129;SDS011;4106;52.532;13.408;2022-07-19T07:56:07;36.88;;;12.45;;
8129;SDS011;4106;52.532;13.408;2022-07-19T07:58:35;16.12;;;7.32;;
8129;SDS011;4106;52.532;13.408;2022-07-19T08:01:02;9.23;;;5.30;;
8129;SDS011;4106;52.532;13.408;2022-07-19T08:03:30;7.68;;;4.60;;
8129;SDS011;4106;52.532;13.408;2022-07-19T08:05:57;10.80;;;5.62;;
8129;SDS011;4106;52.532;13.408;2022-07-19T08:08:25;3.67;;;2.67;;
8129;SDS011;4106;52.532;13.408;2022-07-19T08:10:54;3.75;;;3.05;;
8129;SDS011;4106;52.532;13.408;2022-07-19T08:13:22;3.22;;;2.60;;
8129;SDS011;4106;52.532;13.408;2022-07-19T08:15:50;6.60;;;3.10;;
8129;SDS011;4106;52.532;13.408;2022-07-19T08:18:17;2.40;;;2.00;;
8129;SDS011;4106;52.532;13.408;2022-07-19T08:20:44;2.67;;;2.47;;
8129;SDS011;4106;52.532;13.408;2022-07-19T08:23:12;3.80;;;2.75;;
8129;SDS011;4106;52.532;13.408;2022-07-19T08:25:40;2.42;;;2.22;;
8129;SDS011;4106;52.532;13.408;2022-07-19T08:28:08;7.68;;;3.87;;
8129;SDS011;4106;52.532;13.408;2022-07-19T08:30:35;2.10;;;2.00;;
8129;SDS011;4106;52.532;13.408;2022-07-19T08:33:02;2.80;;;2.20;;
8129;SDS011;4106;52.532;13.408;2022-07-19T08:35:30;3.60;;;2.47;;
8129;SDS011;4106;52.532;13.408;2022-07-19T08:37:57;3.45;;;2.40;;
8129;SDS011;4106;52.532;13.408;2022-07-19T08:40:25;4.12;;;2.70;;
8129;SDS011;4106;52.532;13.408;2022-07-19T08:42:53;12.55;;;5.53;;
8129;SDS011;4106;52.532;13.408;2022-07-19T08:45:22;7.12;;;4.18;;
8129;SDS011;4106;52.532;13.408;2022-07-19T08:47:49;8.48;;;4.90;;
8129;SDS011;4106;52.532;13.408;2022-07-19T08:50:16;6.03;;;4.10;;
8129;SDS011;4106;52.532;13.408;2022-07-19T08:52:43;2.30;;;1.92;;
8129;SDS011;4106;52.532;13.408;2022-07-19T08:55:10;2.58;;;2.22;;
8129;SDS011;4106;52.532;13.408;2022-07-19T08:57:37;2.90;;;1.98;;
8129;SDS011;4106;52.532;13.408;2022-07-19T09:00:11;3.03;;;1.90;;
8129;SDS011;4106;52.532;13.408;2022-07-19T09:02:39;1.62;;;1.52;;
8129;SDS011;4106;52.532;13.408;2022-07-19T09:05:09;8.07;;;3.95;;
8129;SDS011;4106;52.532;13.408;2022-07-19T09:07:35;1.62;;;1.52;;
8129;SDS011;4106;52.532;13.408;2022-07-19T09:15:19;8.68;;;3.75;;
8129;SDS011;4106;52.532;13.408;2022-07-19T09:17:46;2.15;;;1.95;;
8129;SDS011;4106;52.532;13.408;2022-07-19T09:20:13;2.03;;;1.65;;
8129;SDS011;4106;52.532;13.408;2022-07-19T09:22:40;5.05;;;4.10;;
8129;SDS011;4106;52.532;13.408;2022-07-19T09:25:08;4.60;;;3.40;;
8129;SDS011;4106;52.532;13.408;2022-07-19T09:27:36;7.97;;;4.12;;
8129;SDS011;4106;52.532;13.408;2022-07-19T09:30:03;8.40;;;3.45;;
8129;SDS011;4106;52.532;13.408;2022-07-19T09:32:31;6.57;;;3.75;;
8129;SDS011;4106;52.532;13.408;2022-07-19T09:34:59;7.78;;;3.83;;
8129;SDS011;4106;52.532;13.408;2022-07-19T09:37:29;7.05;;;3.70;;
8129;SDS011;4106;52.532;13.408;2022-07-19T09:39:56;7.43;;;2.97;;
8129;SDS011;4106;52.532;13.408;2022-07-19T09:45:04;2.80;;;2.40;;
8129;SDS011;4106;52.532;13.408;2022-07-19T09:47:32;2.87;;;2.47;;
8129;SDS011;4106;52.532;13.408;2022-07-19T09:49:59;6.12;;;3.22;;
8129;SDS011;4106;52.532;13.408;2022-07-19T09:52:26;6.37;;;3.20;;
8129;SDS011;4106;52.532;13.408;2022-07-19T09:54:54;7.35;;;3.40;;
8129;SDS011;4106;52.532;13.408;2022-07-19T09:57:23;3.75;;;2.67;;
8129;SDS011;4106;52.532;13.408;2022-07-19T09:59:51;1.62;;;1.40;;
8129;SDS011;4106;52.532;13.408;2022-07-19T10:02:19;4.20;;;2.55;;
8129;SDS011;4106;52.532;13.408;2022-07-19T10:04:47;4.25;;;2.53;;
8129;SDS011;4106;52.532;13.408;2022-07-19T10:07:15;3.40;;;2.25;;
8129;SDS011;4106;52.532;13.408;2022-07-19T10:09:41;1.30;;;1.12;;
8129;SDS011;4106;52.532;13.408;2022-07-19T10:12:11;7.57;;;2.85;;
8129;SDS011;4106;52.532;13.408;2022-07-19T10:14:38;3.67;;;2.20;;
8129;SDS011;4106;52.532;13.408;2022-07-19T10:17:23;2.92;;;2.25;;
8129;SDS011;4106;52.532;13.408;2022-07-19T10:19:49;3.33;;;2.37;;
8129;SDS011;4106;52.532;13.408;2022-07-19T10:22:18;3.65;;;2.67;;
8129;SDS011;4106;52.532;13.408;2022-07-19T10:24:48;3.03;;;2.65;;
8129;SDS011;4106;52.532;13.408;2022-07-19T10:27:34;4.10;;;2.30;;
8129;SDS011;4106;52.532;13.408;2022-07-19T10:29:46;1.73;;;1.62;;
8129;SDS011;4106;52.532;13.408;2022-07-19T10:32:14;1.40;;;1.30;;
8129;SDS011;4106;52.532;13.408;2022-07-19T10:34:42;1.50;;;1.40;;
8129;SDS011;4106;52.532;13.408;2022-07-19T10:37:09;1.80;;;1.45;;
8129;SDS011;4106;52.532;13.408;2022-07-19T10:39:37;2.05;;;1.58;;
8129;SDS011;4106;52.532;13.408;2022-07-19T10:42:08;3.25;;;2.37;;
8129;SDS011;4106;52.532;13.408;2022-07-19T10:44:34;2.45;;;1.87;;
8129;SDS011;4106;52.532;13.408;2022-07-19T10:47:01;1.60;;;1.50;;
8129;SDS011;4106;52.532;13.408;2022-07-19T10:54:46;1.08;;;1.08;;
8129;SDS011;4106;52.532;13.408;2022-07-19T10:57:13;1.65;;;1.25;;
8129;SDS011;4106;52.532;13.408;2022-07-19T10:59:41;1.15;;;1.15;;
8129;SDS011;4106;52.532;13.408;2022-07-19T11:02:21;3.30;;;2.40;;
8129;SDS011;4106;52.532;13.408;2022-07-19T11:04:36;2.83;;;2.60;;
8129;SDS011;4106;52.532;13.408;2022-07-19T11:09:39;1.17;;;1.17;;
8129;SDS011;4106;52.532;13.408;2022-07-19T11:12:41;2.17;;;2.03;;
8129;SDS011;4106;52.532;13.408;2022-07-19T11:14:52;2.25;;;2.05;;
8129;SDS011;4106;52.532;13.408;2022-07-19T11:17:20;3.22;;;2.12;;
8129;SDS011;4106;52.532;13.408;2022-07-19T11:22:23;83.37;;;17.48;;
8129;SDS011;4106;52.532;13.408;2022-07-19T11:24:51;120.50;;;28.25;;
8129;SDS011;4106;52.532;13.408;2022-07-19T11:27:19;163.23;;;33.28;;
8129;SDS011;4106;52.532;13.408;2022-07-19T11:29:53;133.27;;;28.27;;
8129;SDS011;4106;52.532;13.408;2022-07-19T11:32:20;102.05;;;24.65;;
8129;SDS011;4106;52.532;13.408;2022-07-19T11:34:52;84.13;;;20.25;;
8129;SDS011;4106;52.532;13.408;2022-07-19T11:37:24;83.75;;;17.85;;
8129;SDS011;4106;52.532;13.408;2022-07-19T11:39:50;65.90;;;16.65;;
8129;SDS011;4106;52.532;13.408;2022-07-19T11:44:54;48.03;;;12.95;;
8129;SDS011;4106;52.532;13.408;2022-07-19T11:47:22;3.37;;;1.98;;
8129;SDS011;4106;52.532;13.408;2022-07-19T11:49:49;16.52;;;5.72;;
8129;SDS011;4106;52.532;13.408;2022-07-19T11:52:16;4.15;;;2.40;;
8129;SDS011;4106;52.532;13.408;2022-07-19T11:54:57;2.72;;;1.75;;
8129;SDS011;4106;52.532;13.408;2022-07-19T11:59:49;2.25;;;1.58;;
8129;SDS011;4106;52.532;13.408;2022-07-19T12:02:16;1.30;;;1.20;;
8129;SDS011;4106;52.532;13.408;2022-07-19T12:04:43;1.50;;;1.40;;
8129;SDS011;4106;52.532;13.408;2022-07-19T12:07:10;4.97;;;1.50;;
8129;SDS011;4106;52.532;13.408;2022-07-19T12:09:37;3.30;;;2.05;;
8129;SDS011;4106;52.532;13.408;2022-07-19T12:12:12;2.30;;;2.10;;
8129;SDS011;4106;52.532;13.408;2022-07-19T12:14:38;2.20;;;1.98;;
8129;SDS011;4106;52.532;13.408;2022-07-19T12:17:11;3.67;;;1.70;;
8129;SDS011;4106;52.532;13.408;2022-07-19T12:19:41;4.00;;;1.42;;
8129;SDS011;4106;52.532;13.408;2022-07-19T12:24:47;4.65;;;2.20;;
8129;SDS011;4106;52.532;13.408;2022-07-19T12:27:15;3.08;;;2.45;;
8129;SDS011;4106;52.532;13.408;2022-07-19T12:29:44;6.28;;;2.58;;
8129;SDS011;4106;52.532;13.408;2022-07-19T12:32:11;4.05;;;2.78;;
8129;SDS011;4106;52.532;13.408;2022-07-19T12:34:43;3.42;;;2.47;;
8129;SDS011;4106;52.532;13.408;2022-07-19T12:42:34;4.05;;;2.53;;
8129;SDS011;4106;52.532;13.408;2022-07-19T12:45:12;4.53;;;2.60;;
8129;SDS011;4106;52.532;13.408;2022-07-19T12:47:44;2.28;;;2.10;;
8129;SDS011;4106;52.532;13.408;2022-07-19T12:52:50;3.17;;;2.55;;
8129;SDS011;4106;52.532;13.408;2022-07-19T12:55:17;4.35;;;2.55;;
8129;SDS011;4106;52.532;13.408;2022-07-19T12:57:44;2.40;;;2.20;;
8129;SDS011;4106;52.532;13.408;2022-07-19T13:00:11;4.10;;;2.60;;
8129;SDS011;4106;52.532;13.408;2022-07-19T13:02:40;2.40;;;1.80;;
8129;SDS011;4106;52.532;13.408;2022-07-19T13:05:07;4.10;;;2.35;;
8129;SDS011;4106;52.532;13.408;2022-07-19T13:07:34;2.08;;;1.30;;
8129;SDS011;4106;52.532;13.408;2022-07-19T13:10:02;5.07;;;2.83;;
8129;SDS011;4106;52.532;13.408;2022-07-19T13:12:29;8.40;;;2.83;;
8129;SDS011;4106;52.532;13.408;2022-07-19T13:14:56;3.70;;;2.90;;
8129;SDS011;4106;52.532;13.408;2022-07-19T13:17:23;2.78;;;2.50;;
8129;SDS011;4106;52.532;13.408;2022-07-19T13:19:50;6.05;;;2.80;;
8129;SDS011;4106;52.532;13.408;2022-07-19T13:22:18;4.05;;;2.55;;
8129;SDS011;4106;52.532;13.408;2022-07-19T13:24:45;4.53;;;2.50;;
8129;SDS011;4106;52.532;13.408;2022-07-19T13:27:12;2.40;;;1.83;;
8129;SDS011;4106;52.532;13.408;2022-07-19T13:29:39;1.30;;;1.20;;
8129;SDS011;4106;52.532;13.408;2022-07-19T13:32:07;1.60;;;1.50;;
8129;SDS011;4106;52.532;13.408;2022-07-19T13:34:35;1.50;;;1.40;;
8129;SDS011;4106;52.532;13.408;2022-07-19T13:37:02;0.95;;;0.95;;
8129;SDS011;4106;52.532;13.408;2022-07-19T13:39:29;2.35;;;1.37;;
8129;SDS011;4106;52.532;13.408;2022-07-19T13:41:56;2.30;;;2.10;;
8129;SDS011;4106;52.532;13.408;2022-07-19T13:44:23;2.15;;;1.67;;
8129;SDS011;4106;52.532;13.408;2022-07-19T13:46:51;3.45;;;2.33;;
8129;SDS011;4106;52.532;13.408;2022-07-19T13:49:18;2.60;;;2.00;;
8129;SDS011;4106;52.532;13.408;2022-07-19T13:51:46;2.65;;;2.35;;
8129;SDS011;4106;52.532;13.408;2022-07-19T13:54:14;2.50;;;2.30;;
8129;SDS011;4106;52.532;13.408;2022-07-19T13:56:42;3.28;;;2.47;;
8129;SDS011;4106;52.532;13.408;2022-07-19T13:59:10;2.50;;;2.30;;
8129;SDS011;4106;52.532;13.408;2022-07-19T14:01:37;2.42;;;1.55;;
8129;SDS011;4106;52.532;13.408;2022-07-19T14:04:04;2.00;;;1.87;;
8129;SDS011;4106;52.532;13.408;2022-07-19T14:06:31;1.75;;;1.65;;
8129;SDS011;4106;52.532;13.408;2022-07-19T14:08:58;2.20;;;1.87;;
8129;SDS011;4106;52.532;13.408;2022-07-19T14:11:26;1.70;;;1.60;;
8129;SDS011;4106;52.532;13.408;2022-07-19T14:13:54;1.70;;;1.60;;
8129;SDS011;4106;52.532;13.408;2022-07-19T14:16:21;1.35;;;1.35;;
8129;SDS011;4106;52.532;13.408;2022-07-19T14:18:48;2.40;;;2.20;;
8129;SDS011;4106;52.532;13.408;2022-07-19T14:21:15;1.67;;;1.23;;
8129;SDS011;4106;52.532;13.408;2022-07-19T14:23:42;1.62;;;1.52;;
8129;SDS011;4106;52.532;13.408;2022-07-19T14:26:10;1.73;;;1.62;;
8129;SDS011;4106;52.532;13.408;2022-07-19T14:28:37;2.37;;;2.10;;
8129;SDS011;4106;52.532;13.408;2022-07-19T14:31:05;2.60;;;2.40;;
8129;SDS011;4106;52.532;13.408;2022-07-19T14:33:32;2.45;;;2.25;;
8129;SDS011;4106;52.532;13.408;2022-07-19T14:35:59;2.53;;;2.33;;
8129;SDS011;4106;52.532;13.408;2022-07-19T14:38:26;2.75;;;2.45;;
8129;SDS011;4106;52.532;13.408;2022-07-19T14:40:54;2.20;;;1.98;;
8129;SDS011;4106;52.532;13.408;2022-07-19T14:43:22;2.45;;;2.25;;
8129;SDS011;4106;52.532;13.408;2022-07-19T14:45:50;2.60;;;2.35;;
8129;SDS011;4106;52.532;13.408;2022-07-19T14:48:18;2.30;;;2.10;;
8129;SDS011;4106;52.532;13.408;2022-07-19T14:50:45;2.25;;;2.10;;
8129;SDS011;4106;52.532;13.408;2022-07-19T14:53:13;2.05;;;1.95;;
8129;SDS011;4106;52.532;13.408;2022-07-19T14:55:41;3.50;;;2.30;;
8129;SDS011;4106;52.532;13.408;2022-07-19T14:58:09;30.90;;;6.72;;
8129;SDS011;4106;52.532;13.408;2022-07-19T15:00:36;25.25;;;7.47;;
8129;SDS011;4106;52.532;13.408;2022-07-19T15:03:03;29.33;;;6.60;;
8129;SDS011;4106;52.532;13.408;2022-07-19T15:05:30;5.07;;;2.67;;
8129;SDS011;4106;52.532;13.408;2022-07-19T15:07:58;9.30;;;3.55;;
8129;SDS011;4106;52.532;13.408;2022-07-19T15:10:27;7.37;;;2.90;;
8129;SDS011;4106;52.532;13.408;2022-07-19T15:12:55;4.80;;;2.80;;
8129;SDS011;4106;52.532;13.408;2022-07-19T15:15:23;3.20;;;2.50;;
8129;SDS011;4106;52.532;13.408;2022-07-19T15:17:51;3.85;;;2.72;;
8129;SDS011;4106;52.532;13.408;2022-07-19T15:20:19;2.80;;;2.12;;
8129;SDS011;4106;52.532;13.408;2022-07-19T15:22:46;4.00;;;2.15;;
8129;SDS011;4106;52.532;13.408;2022-07-19T15:25:13;6.50;;;2.42;;
8129;SDS011;4106;52.532;13.408;2022-07-19T15:27:40;2.47;;;2.20;;
8129;SDS011;4106;52.532;13.408;2022-07-19T15:30:07;2.55;;;2.30;;
8129;SDS011;4106;52.532;13.408;2022-07-19T15:32:36;1.48;;;1.27;;
8129;SDS011;4106;52.532;13.408;2022-07-19T15:35:04;1.90;;;1.70;;
8129;SDS011;4106;52.532;13.408;2022-07-19T15:37:31;1.55;;;1.40;;